sensor_id;sensor_type;location;lat;lon;timestamp;P1;durP1;ratioP1;P2;durP2;ratioP2
21432;SDS011;18592;49.708;10.900;2023-09-19T00:01:54;2.72;;;1.10;;
21432;SDS011;18592;49.708;10.900;2023-09-19T00:03:57;1.63;;;1.00;;
21432;SDS011;18592;49.708;10.900;2023-09-19T00:05:58;1.92;;;1.27;;
21432;SDS011;18592;49.708;10.900;2023-09-19T00:08:00;2.47;;;1.50;;
21432;SDS011;18592;49.708;10.900;2023-09-19T00:10:01;2.28;;;1.10;;
21432;SDS011;18592;49.708;10.900;2023-09-19T00:12:01;2.55;;;1.10;;
21432;SDS011;18592;49.708;10.900;2023-09-19T00:14:01;1.92;;;1.30;;
21432;SDS011;18592;49.708;10.900;2023-09-19T00:16:09;2.40;;;1.40;;
21432;SDS011;18592;49.708;10.900;2023-09-19T00:18:14;1.55;;;1.10;;
21432;SDS011;18592;49.708;10.900;2023-09-19T00:20:18;1.23;;;1.00;;
21432;SDS011;18592;49.708;10.900;2023-09-19T00:22:24;2.10;;;1.15;;
21432;SDS011;18592;49.708;10.900;2023-09-19T00:24:26;2.35;;;1.27;;
21432;SDS011;18592;49.708;10.900;2023-09-19T00:26:28;1.55;;;1.10;;
21432;SDS011;18592;49.708;10.900;2023-09-19T00:28:32;2.08;;;1.13;;
21432;SDS011;18592;49.708;10.900;2023-09-19T00:30:33;1.20;;;0.90;;
21432;SDS011;18592;49.708;10.900;2023-09-19T00:32:34;1.45;;;1.20;;
21432;SDS011;18592;49.708;10.900;2023-09-19T00:34:42;1.63;;;1.10;;
21432;SDS011;18592;49.708;10.900;2023-09-19T00:36:44;1.58;;;1.05;;
21432;SDS011;18592;49.708;10.900;2023-09-19T00:38:47;1.17;;;0.90;;
21432;SDS011;18592;49.708;10.900;2023-09-19T00:41:21;2.33;;;1.10;;
21432;SDS011;18592;49.708;10.900;2023-09-19T00:54:02;1.92;;;1.30;;
21432;SDS011;18592;49.708;10.900;2023-09-19T00:56:04;2.60;;;0.88;;
21432;SDS011;18592;49.708;10.900;2023-09-19T00:58:13;1.20;;;1.00;;
21432;SDS011;18592;49.708;10.900;2023-09-19T01:00:14;2.20;;;1.20;;
21432;SDS011;18592;49.708;10.900;2023-09-19T01:02:16;1.35;;;0.77;;
21432;SDS011;18592;49.708;10.900;2023-09-19T01:04:16;1.42;;;0.90;;
21432;SDS011;18592;49.708;10.900;2023-09-19T01:06:18;1.02;;;0.82;;
21432;SDS011;18592;49.708;10.900;2023-09-19T01:08:18;1.77;;;0.80;;
21432;SDS011;18592;49.708;10.900;2023-09-19T01:10:19;1.23;;;0.93;;
21432;SDS011;18592;49.708;10.900;2023-09-19T01:12:22;1.98;;;1.10;;
21432;SDS011;18592;49.708;10.900;2023-09-19T01:14:52;0.90;;;0.70;;
21432;SDS011;18592;49.708;10.900;2023-09-19T01:17:01;0.90;;;0.90;;
21432;SDS011;18592;49.708;10.900;2023-09-19T01:22:21;1.33;;;0.90;;
21432;SDS011;18592;49.708;10.900;2023-09-19T01:27:25;0.98;;;0.88;;
21432;SDS011;18592;49.708;10.900;2023-09-19T01:29:45;1.05;;;0.93;;
21432;SDS011;18592;49.708;10.900;2023-09-19T01:31:46;1.00;;;0.80;;
21432;SDS011;18592;49.708;10.900;2023-09-19T01:33:56;1.70;;;1.02;;
21432;SDS011;18592;49.708;10.900;2023-09-19T01:36:01;1.77;;;0.80;;
21432;SDS011;18592;49.708;10.900;2023-09-19T01:38:01;0.77;;;0.73;;
21432;SDS011;18592;49.708;10.900;2023-09-19T01:40:04;1.63;;;0.90;;
21432;SDS011;18592;49.708;10.900;2023-09-19T01:42:28;0.80;;;0.75;;
21432;SDS011;18592;49.708;10.900;2023-09-19T01:44:44;2.92;;;0.90;;
21432;SDS011;18592;49.708;10.900;2023-09-19T01:46:54;1.23;;;0.80;;
21432;SDS011;18592;49.708;10.900;2023-09-19T01:51:03;1.05;;;0.80;;
21432;SDS011;18592;49.708;10.900;2023-09-19T01:55:53;0.82;;;0.80;;
21432;SDS011;18592;49.708;10.900;2023-09-19T01:57:58;1.30;;;0.70;;
21432;SDS011;18592;49.708;10.900;2023-09-19T02:00:05;1.73;;;0.80;;
21432;SDS011;18592;49.708;10.900;2023-09-19T02:02:14;0.88;;;0.73;;
21432;SDS011;18592;49.708;10.900;2023-09-19T02:04:17;1.15;;;0.70;;
21432;SDS011;18592;49.708;10.900;2023-09-19T02:06:18;1.15;;;0.85;;
21432;SDS011;18592;49.708;10.900;2023-09-19T02:08:19;1.58;;;0.85;;
21432;SDS011;18592;49.708;10.900;2023-09-19T02:10:20;1.10;;;0.88;;
21432;SDS011;18592;49.708;10.900;2023-09-19T02:12:23;1.10;;;0.68;;
21432;SDS011;18592;49.708;10.900;2023-09-19T02:14:23;1.55;;;0.90;;
21432;SDS011;18592;49.708;10.900;2023-09-19T02:27:04;2.20;;;0.80;;
21432;SDS011;18592;49.708;10.900;2023-09-19T02:29:05;0.60;;;0.60;;
21432;SDS011;18592;49.708;10.900;2023-09-19T02:31:06;0.98;;;0.73;;
21432;SDS011;18592;49.708;10.900;2023-09-19T02:33:06;1.20;;;1.00;;
21432;SDS011;18592;49.708;10.900;2023-09-19T02:35:08;1.67;;;0.70;;
21432;SDS011;18592;49.708;10.900;2023-09-19T02:37:11;1.88;;;0.82;;
21432;SDS011;18592;49.708;10.900;2023-09-19T02:39:13;0.70;;;0.60;;
21432;SDS011;18592;49.708;10.900;2023-09-19T02:41:13;1.95;;;0.80;;
21432;SDS011;18592;49.708;10.900;2023-09-19T02:43:14;0.90;;;0.60;;
21432;SDS011;18592;49.708;10.900;2023-09-19T02:45:15;1.13;;;0.73;;
21432;SDS011;18592;49.708;10.900;2023-09-19T02:47:17;1.38;;;0.63;;
21432;SDS011;18592;49.708;10.900;2023-09-19T02:49:18;1.02;;;0.68;;
21432;SDS011;18592;49.708;10.900;2023-09-19T02:51:19;1.30;;;0.80;;
21432;SDS011;18592;49.708;10.900;2023-09-19T02:53:20;1.00;;;0.70;;
21432;SDS011;18592;49.708;10.900;2023-09-19T02:55:27;0.95;;;0.73;;
21432;SDS011;18592;49.708;10.900;2023-09-19T02:57:28;2.55;;;0.80;;
21432;SDS011;18592;49.708;10.900;2023-09-19T02:59:29;0.70;;;0.70;;
21432;SDS011;18592;49.708;10.900;2023-09-19T03:01:31;0.68;;;0.68;;
21432;SDS011;18592;49.708;10.900;2023-09-19T03:03:32;1.10;;;0.80;;
21432;SDS011;18592;49.708;10.900;2023-09-19T03:05:34;2.70;;;0.80;;
21432;SDS011;18592;49.708;10.900;2023-09-19T03:07:34;0.50;;;0.50;;
21432;SDS011;18592;49.708;10.900;2023-09-19T03:09:37;1.20;;;0.73;;
21432;SDS011;18592;49.708;10.900;2023-09-19T03:11:38;0.90;;;0.70;;
21432;SDS011;18592;49.708;10.900;2023-09-19T03:13:40;0.73;;;0.70;;
21432;SDS011;18592;49.708;10.900;2023-09-19T03:15:42;1.20;;;0.65;;
21432;SDS011;18592;49.708;10.900;2023-09-19T03:17:47;1.42;;;0.93;;
21432;SDS011;18592;49.708;10.900;2023-09-19T03:19:52;1.05;;;0.73;;
21432;SDS011;18592;49.708;10.900;2023-09-19T03:21:54;1.20;;;0.88;;
21432;SDS011;18592;49.708;10.900;2023-09-19T03:34:38;1.90;;;0.70;;
21432;SDS011;18592;49.708;10.900;2023-09-19T03:36:44;2.28;;;0.98;;
21432;SDS011;18592;49.708;10.900;2023-09-19T03:38:45;1.45;;;0.80;;
21432;SDS011;18592;49.708;10.900;2023-09-19T03:40:45;1.38;;;0.77;;
21432;SDS011;18592;49.708;10.900;2023-09-19T03:42:47;1.52;;;0.70;;
21432;SDS011;18592;49.708;10.900;2023-09-19T03:44:48;0.93;;;0.63;;
21432;SDS011;18592;49.708;10.900;2023-09-19T03:46:49;2.25;;;0.90;;
21432;SDS011;18592;49.708;10.900;2023-09-19T03:48:51;0.85;;;0.70;;
21432;SDS011;18592;49.708;10.900;2023-09-19T03:51:01;1.40;;;1.00;;
21432;SDS011;18592;49.708;10.900;2023-09-19T03:53:03;1.30;;;0.80;;
21432;SDS011;18592;49.708;10.900;2023-09-19T03:55:05;1.13;;;0.80;;
21432;SDS011;18592;49.708;10.900;2023-09-19T03:57:14;2.20;;;1.00;;
21432;SDS011;18592;49.708;10.900;2023-09-19T03:59:18;2.25;;;0.90;;
21432;SDS011;18592;49.708;10.900;2023-09-19T04:01:29;1.17;;;0.80;;
21432;SDS011;18592;49.708;10.900;2023-09-19T04:03:32;1.30;;;0.80;;
21432;SDS011;18592;49.708;10.900;2023-09-19T04:05:48;2.40;;;0.85;;
21432;SDS011;18592;49.708;10.900;2023-09-19T04:07:49;1.10;;;0.90;;
21432;SDS011;18592;49.708;10.900;2023-09-19T04:09:51;1.00;;;0.80;;
21432;SDS011;18592;49.708;10.900;2023-09-19T04:11:56;1.08;;;0.80;;
21432;SDS011;18592;49.708;10.900;2023-09-19T04:13:57;1.45;;;0.85;;
21432;SDS011;18592;49.708;10.900;2023-09-19T04:15:59;1.27;;;0.88;;
21432;SDS011;18592;49.708;10.900;2023-09-19T04:18:14;1.40;;;0.88;;
21432;SDS011;18592;49.708;10.900;2023-09-19T04:20:18;1.88;;;0.80;;
21432;SDS011;18592;49.708;10.900;2023-09-19T04:22:29;1.08;;;0.88;;
21432;SDS011;18592;49.708;10.900;2023-09-19T04:24:30;2.22;;;1.00;;
21432;SDS011;18592;49.708;10.900;2023-09-19T04:26:43;1.42;;;0.80;;
21432;SDS011;18592;49.708;10.900;2023-09-19T04:28:44;2.67;;;1.15;;
21432;SDS011;18592;49.708;10.900;2023-09-19T04:30:46;1.55;;;1.10;;
21432;SDS011;18592;49.708;10.900;2023-09-19T04:32:47;1.33;;;0.90;;
21432;SDS011;18592;49.708;10.900;2023-09-19T04:34:52;1.98;;;0.75;;
21432;SDS011;18592;49.708;10.900;2023-09-19T04:36:56;1.10;;;0.90;;
21432;SDS011;18592;49.708;10.900;2023-09-19T04:38:58;1.30;;;1.13;;
21432;SDS011;18592;49.708;10.900;2023-09-19T04:41:00;1.48;;;0.95;;
21432;SDS011;18592;49.708;10.900;2023-09-19T04:43:15;1.58;;;1.10;;
21432;SDS011;18592;49.708;10.900;2023-09-19T04:45:27;1.30;;;1.13;;
21432;SDS011;18592;49.708;10.900;2023-09-19T04:58:10;1.23;;;1.10;;
21432;SDS011;18592;49.708;10.900;2023-09-19T05:00:12;2.58;;;1.00;;
21432;SDS011;18592;49.708;10.900;2023-09-19T05:02:18;2.25;;;1.17;;
21432;SDS011;18592;49.708;10.900;2023-09-19T05:04:20;2.20;;;0.90;;
21432;SDS011;18592;49.708;10.900;2023-09-19T05:06:24;1.27;;;0.90;;
21432;SDS011;18592;49.708;10.900;2023-09-19T05:08:26;1.25;;;1.00;;
21432;SDS011;18592;49.708;10.900;2023-09-19T05:10:28;1.13;;;0.90;;
21432;SDS011;18592;49.708;10.900;2023-09-19T05:12:31;2.10;;;0.70;;
21432;SDS011;18592;49.708;10.900;2023-09-19T05:14:37;1.08;;;0.98;;
21432;SDS011;18592;49.708;10.900;2023-09-19T05:17:00;1.13;;;0.80;;
21432;SDS011;18592;49.708;10.900;2023-09-19T05:19:00;1.80;;;0.90;;
21432;SDS011;18592;49.708;10.900;2023-09-19T05:21:15;3.22;;;1.10;;
21432;SDS011;18592;49.708;10.900;2023-09-19T05:23:16;1.65;;;1.27;;
21432;SDS011;18592;49.708;10.900;2023-09-19T05:25:18;1.30;;;1.00;;
21432;SDS011;18592;49.708;10.900;2023-09-19T05:27:21;1.08;;;0.90;;
21432;SDS011;18592;49.708;10.900;2023-09-19T05:29:29;1.55;;;1.00;;
21432;SDS011;18592;49.708;10.900;2023-09-19T05:31:29;1.45;;;1.05;;
21432;SDS011;18592;49.708;10.900;2023-09-19T05:33:32;2.75;;;1.30;;
21432;SDS011;18592;49.708;10.900;2023-09-19T05:35:33;1.25;;;0.98;;
21432;SDS011;18592;49.708;10.900;2023-09-19T05:37:40;1.70;;;1.10;;
21432;SDS011;18592;49.708;10.900;2023-09-19T05:39:42;2.92;;;1.10;;
21432;SDS011;18592;49.708;10.900;2023-09-19T05:41:44;1.52;;;1.00;;
21432;SDS011;18592;49.708;10.900;2023-09-19T05:43:45;2.08;;;1.20;;
21432;SDS011;18592;49.708;10.900;2023-09-19T05:45:45;1.08;;;0.90;;
21432;SDS011;18592;49.708;10.900;2023-09-19T05:47:46;1.83;;;1.08;;
21432;SDS011;18592;49.708;10.900;2023-09-19T05:49:48;2.47;;;1.10;;
21432;SDS011;18592;49.708;10.900;2023-09-19T05:51:49;2.20;;;1.30;;
21432;SDS011;18592;49.708;10.900;2023-09-19T05:53:51;2.95;;;1.10;;
21432;SDS011;18592;49.708;10.900;2023-09-19T05:55:54;2.35;;;1.40;;
21432;SDS011;18592;49.708;10.900;2023-09-19T05:57:57;1.65;;;1.20;;
21432;SDS011;18592;49.708;10.900;2023-09-19T05:59:57;2.03;;;1.20;;
21432;SDS011;18592;49.708;10.900;2023-09-19T06:01:58;1.40;;;1.30;;
21432;SDS011;18592;49.708;10.900;2023-09-19T06:03:59;1.45;;;1.00;;
21432;SDS011;18592;49.708;10.900;2023-09-19T06:06:02;2.25;;;1.00;;
21432;SDS011;18592;49.708;10.900;2023-09-19T06:08:02;2.17;;;1.20;;
21432;SDS011;18592;49.708;10.900;2023-09-19T06:10:07;1.77;;;1.02;;
21432;SDS011;18592;49.708;10.900;2023-09-19T06:12:10;1.33;;;1.13;;
21432;SDS011;18592;49.708;10.900;2023-09-19T06:14:12;1.70;;;1.45;;
21432;SDS011;18592;49.708;10.900;2023-09-19T06:16:13;1.25;;;0.80;;
21432;SDS011;18592;49.708;10.900;2023-09-19T06:18:13;1.10;;;1.00;;
21432;SDS011;18592;49.708;10.900;2023-09-19T06:20:18;2.20;;;1.15;;
21432;SDS011;18592;49.708;10.900;2023-09-19T06:22:21;1.10;;;1.00;;
21432;SDS011;18592;49.708;10.900;2023-09-19T06:24:21;3.72;;;1.00;;
21432;SDS011;18592;49.708;10.900;2023-09-19T06:26:22;1.52;;;0.98;;
21432;SDS011;18592;49.708;10.900;2023-09-19T06:28:23;1.02;;;0.85;;
21432;SDS011;18592;49.708;10.900;2023-09-19T06:30:32;1.15;;;1.05;;
21432;SDS011;18592;49.708;10.900;2023-09-19T06:32:33;1.75;;;0.93;;
21432;SDS011;18592;49.708;10.900;2023-09-19T06:34:34;1.50;;;1.02;;
21432;SDS011;18592;49.708;10.900;2023-09-19T06:36:35;2.58;;;1.15;;
21432;SDS011;18592;49.708;10.900;2023-09-19T06:38:36;0.90;;;0.90;;
21432;SDS011;18592;49.708;10.900;2023-09-19T06:40:38;1.70;;;0.95;;
21432;SDS011;18592;49.708;10.900;2023-09-19T06:42:43;1.42;;;1.10;;
21432;SDS011;18592;49.708;10.900;2023-09-19T06:44:45;3.17;;;0.90;;
21432;SDS011;18592;49.708;10.900;2023-09-19T06:46:57;2.58;;;1.05;;
21432;SDS011;18592;49.708;10.900;2023-09-19T06:48:59;1.40;;;0.90;;
21432;SDS011;18592;49.708;10.900;2023-09-19T06:51:26;1.00;;;0.90;;
21432;SDS011;18592;49.708;10.900;2023-09-19T06:53:30;1.52;;;1.00;;
21432;SDS011;18592;49.708;10.900;2023-09-19T06:55:36;1.50;;;1.08;;
21432;SDS011;18592;49.708;10.900;2023-09-19T06:57:37;1.13;;;1.00;;
21432;SDS011;18592;49.708;10.900;2023-09-19T06:59:40;1.05;;;0.98;;
21432;SDS011;18592;49.708;10.900;2023-09-19T07:01:46;1.33;;;1.00;;
21432;SDS011;18592;49.708;10.900;2023-09-19T07:03:50;1.50;;;1.13;;
21432;SDS011;18592;49.708;10.900;2023-09-19T07:05:52;1.67;;;1.00;;
21432;SDS011;18592;49.708;10.900;2023-09-19T07:07:54;1.67;;;1.33;;
21432;SDS011;18592;49.708;10.900;2023-09-19T07:09:55;1.55;;;1.35;;
21432;SDS011;18592;49.708;10.900;2023-09-19T07:11:58;1.77;;;1.30;;
21432;SDS011;18592;49.708;10.900;2023-09-19T07:14:07;2.13;;;1.33;;
21432;SDS011;18592;49.708;10.900;2023-09-19T07:16:09;1.65;;;1.30;;
21432;SDS011;18592;49.708;10.900;2023-09-19T07:18:29;1.95;;;1.48;;
21432;SDS011;18592;49.708;10.900;2023-09-19T07:20:31;2.22;;;1.20;;
21432;SDS011;18592;49.708;10.900;2023-09-19T07:22:35;1.38;;;1.20;;
21432;SDS011;18592;49.708;10.900;2023-09-19T07:24:39;1.90;;;1.42;;
21432;SDS011;18592;49.708;10.900;2023-09-19T07:26:41;2.72;;;1.20;;
21432;SDS011;18592;49.708;10.900;2023-09-19T07:28:43;2.15;;;1.30;;
21432;SDS011;18592;49.708;10.900;2023-09-19T07:30:44;1.67;;;1.13;;
21432;SDS011;18592;49.708;10.900;2023-09-19T07:32:46;2.33;;;1.40;;
21432;SDS011;18592;49.708;10.900;2023-09-19T07:34:48;2.50;;;1.13;;
21432;SDS011;18592;49.708;10.900;2023-09-19T07:36:50;2.90;;;1.50;;
21432;SDS011;18592;49.708;10.900;2023-09-19T07:38:51;1.30;;;1.20;;
21432;SDS011;18592;49.708;10.900;2023-09-19T07:40:59;2.63;;;1.60;;
21432;SDS011;18592;49.708;10.900;2023-09-19T07:43:01;3.22;;;1.48;;
21432;SDS011;18592;49.708;10.900;2023-09-19T07:45:03;3.28;;;1.52;;
21432;SDS011;18592;49.708;10.900;2023-09-19T07:47:07;1.90;;;1.23;;
21432;SDS011;18592;49.708;10.900;2023-09-19T07:49:11;2.38;;;1.60;;
21432;SDS011;18592;49.708;10.900;2023-09-19T07:51:13;1.90;;;1.35;;
21432;SDS011;18592;49.708;10.900;2023-09-19T07:53:17;1.45;;;1.27;;
21432;SDS011;18592;49.708;10.900;2023-09-19T07:55:19;2.78;;;1.27;;
21432;SDS011;18592;49.708;10.900;2023-09-19T07:57:23;1.98;;;1.45;;
21432;SDS011;18592;49.708;10.900;2023-09-19T07:59:25;1.95;;;1.60;;
21432;SDS011;18592;49.708;10.900;2023-09-19T08:01:26;2.78;;;1.52;;
21432;SDS011;18592;49.708;10.900;2023-09-19T08:03:35;1.80;;;1.60;;
21432;SDS011;18592;49.708;10.900;2023-09-19T08:05:38;1.58;;;1.27;;
21432;SDS011;18592;49.708;10.900;2023-09-19T08:07:41;2.95;;;1.48;;
21432;SDS011;18592;49.708;10.900;2023-09-19T08:09:43;1.98;;;1.30;;
21432;SDS011;18592;49.708;10.900;2023-09-19T08:11:50;2.33;;;1.35;;
21432;SDS011;18592;49.708;10.900;2023-09-19T08:13:51;2.92;;;1.27;;
21432;SDS011;18592;49.708;10.900;2023-09-19T08:15:58;2.42;;;1.52;;
21432;SDS011;18592;49.708;10.900;2023-09-19T08:18:00;2.42;;;1.65;;
21432;SDS011;18592;49.708;10.900;2023-09-19T08:20:03;2.85;;;1.40;;
21432;SDS011;18592;49.708;10.900;2023-09-19T08:22:06;3.38;;;1.30;;
21432;SDS011;18592;49.708;10.900;2023-09-19T08:24:11;2.78;;;1.55;;
21432;SDS011;18592;49.708;10.900;2023-09-19T08:26:22;2.72;;;1.40;;
21432;SDS011;18592;49.708;10.900;2023-09-19T08:28:25;2.28;;;1.30;;
21432;SDS011;18592;49.708;10.900;2023-09-19T08:30:27;3.05;;;1.33;;
21432;SDS011;18592;49.708;10.900;2023-09-19T08:32:37;2.33;;;1.20;;
21432;SDS011;18592;49.708;10.900;2023-09-19T08:34:47;2.00;;;0.90;;
21432;SDS011;18592;49.708;10.900;2023-09-19T08:36:53;2.38;;;1.10;;
21432;SDS011;18592;49.708;10.900;2023-09-19T08:38:58;3.92;;;1.10;;
21432;SDS011;18592;49.708;10.900;2023-09-19T08:41:00;3.28;;;1.40;;
21432;SDS011;18592;49.708;10.900;2023-09-19T08:43:07;1.50;;;1.00;;
21432;SDS011;18592;49.708;10.900;2023-09-19T08:45:09;1.92;;;1.05;;
21432;SDS011;18592;49.708;10.900;2023-09-19T08:47:16;4.72;;;1.27;;
21432;SDS011;18592;49.708;10.900;2023-09-19T08:51:59;2.05;;;1.20;;
21432;SDS011;18592;49.708;10.900;2023-09-19T08:54:06;1.55;;;1.13;;
21432;SDS011;18592;49.708;10.900;2023-09-19T08:56:20;2.75;;;1.95;;
21432;SDS011;18592;49.708;10.900;2023-09-19T08:58:25;4.10;;;2.28;;
21432;SDS011;18592;49.708;10.900;2023-09-19T09:00:32;5.00;;;1.80;;
21432;SDS011;18592;49.708;10.900;2023-09-19T09:02:37;2.28;;;1.58;;
21432;SDS011;18592;49.708;10.900;2023-09-19T09:04:41;2.63;;;1.55;;
21432;SDS011;18592;49.708;10.900;2023-09-19T09:06:46;2.20;;;1.33;;
21432;SDS011;18592;49.708;10.900;2023-09-19T09:08:54;1.45;;;0.90;;
21432;SDS011;18592;49.708;10.900;2023-09-19T09:10:56;2.72;;;1.38;;
21432;SDS011;18592;49.708;10.900;2023-09-19T09:13:06;1.58;;;1.05;;
21432;SDS011;18592;49.708;10.900;2023-09-19T09:15:08;1.27;;;1.10;;
21432;SDS011;18592;49.708;10.900;2023-09-19T09:17:12;1.95;;;1.17;;
21432;SDS011;18592;49.708;10.900;2023-09-19T09:19:21;2.00;;;0.95;;
21432;SDS011;18592;49.708;10.900;2023-09-19T09:21:26;1.65;;;1.05;;
21432;SDS011;18592;49.708;10.900;2023-09-19T09:23:27;2.03;;;1.05;;
21432;SDS011;18592;49.708;10.900;2023-09-19T09:25:46;1.88;;;1.30;;
21432;SDS011;18592;49.708;10.900;2023-09-19T09:28:00;2.70;;;0.90;;
21432;SDS011;18592;49.708;10.900;2023-09-19T09:30:03;1.98;;;1.10;;
21432;SDS011;18592;49.708;10.900;2023-09-19T09:34:34;2.40;;;0.93;;
21432;SDS011;18592;49.708;10.900;2023-09-19T09:36:59;2.78;;;1.02;;
21432;SDS011;18592;49.708;10.900;2023-09-19T09:39:01;3.00;;;1.10;;
21432;SDS011;18592;49.708;10.900;2023-09-19T09:41:17;2.47;;;1.27;;
21432;SDS011;18592;49.708;10.900;2023-09-19T09:43:36;2.58;;;1.00;;
21432;SDS011;18592;49.708;10.900;2023-09-19T09:45:40;2.90;;;1.30;;
21432;SDS011;18592;49.708;10.900;2023-09-19T09:47:49;2.00;;;1.10;;
21432;SDS011;18592;49.708;10.900;2023-09-19T09:49:57;1.52;;;1.00;;
21432;SDS011;18592;49.708;10.900;2023-09-19T09:52:09;3.15;;;1.80;;
21432;SDS011;18592;49.708;10.900;2023-09-19T09:54:23;3.08;;;2.45;;
21432;SDS011;18592;49.708;10.900;2023-09-19T09:56:31;4.72;;;2.65;;
21432;SDS011;18592;49.708;10.900;2023-09-19T09:58:49;3.28;;;2.58;;
21432;SDS011;18592;49.708;10.900;2023-09-19T10:00:59;2.67;;;2.15;;
21432;SDS011;18592;49.708;10.900;2023-09-19T10:03:19;3.78;;;1.80;;
21432;SDS011;18592;49.708;10.900;2023-09-19T10:05:26;3.30;;;1.60;;
21432;SDS011;18592;49.708;10.900;2023-09-19T10:07:33;1.70;;;1.30;;
21432;SDS011;18592;49.708;10.900;2023-09-19T10:09:46;3.22;;;1.63;;
21432;SDS011;18592;49.708;10.900;2023-09-19T10:12:00;2.75;;;1.33;;
21432;SDS011;18592;49.708;10.900;2023-09-19T10:14:18;1.80;;;1.20;;
21432;SDS011;18592;49.708;10.900;2023-09-19T10:16:35;1.60;;;1.13;;
21432;SDS011;18592;49.708;10.900;2023-09-19T10:18:43;2.20;;;1.13;;
21432;SDS011;18592;49.708;10.900;2023-09-19T10:20:45;2.00;;;1.00;;
21432;SDS011;18592;49.708;10.900;2023-09-19T10:22:50;2.60;;;1.20;;
21432;SDS011;18592;49.708;10.900;2023-09-19T10:24:57;1.75;;;0.90;;
21432;SDS011;18592;49.708;10.900;2023-09-19T10:27:04;2.40;;;1.00;;
21432;SDS011;18592;49.708;10.900;2023-09-19T10:29:10;2.00;;;1.33;;
21432;SDS011;18592;49.708;10.900;2023-09-19T10:31:14;4.25;;;1.67;;
21432;SDS011;18592;49.708;10.900;2023-09-19T10:33:24;2.40;;;1.10;;
21432;SDS011;18592;49.708;10.900;2023-09-19T10:35:32;3.45;;;1.20;;
21432;SDS011;18592;49.708;10.900;2023-09-19T10:37:45;2.72;;;1.20;;
21432;SDS011;18592;49.708;10.900;2023-09-19T10:39:52;2.75;;;0.90;;
21432;SDS011;18592;49.708;10.900;2023-09-19T10:41:55;2.33;;;1.05;;
21432;SDS011;18592;49.708;10.900;2023-09-19T10:44:04;1.55;;;0.98;;
21432;SDS011;18592;49.708;10.900;2023-09-19T10:46:10;3.45;;;1.10;;
21432;SDS011;18592;49.708;10.900;2023-09-19T10:48:19;2.85;;;1.20;;
21432;SDS011;18592;49.708;10.900;2023-09-19T10:50:20;2.78;;;1.30;;
21432;SDS011;18592;49.708;10.900;2023-09-19T10:52:25;1.40;;;1.10;;
21432;SDS011;18592;49.708;10.900;2023-09-19T10:54:31;2.90;;;1.33;;
21432;SDS011;18592;49.708;10.900;2023-09-19T10:56:37;2.75;;;1.17;;
21432;SDS011;18592;49.708;10.900;2023-09-19T10:58:42;1.88;;;1.10;;
21432;SDS011;18592;49.708;10.900;2023-09-19T11:00:51;2.55;;;0.98;;
21432;SDS011;18592;49.708;10.900;2023-09-19T11:05:13;1.58;;;1.05;;
21432;SDS011;18592;49.708;10.900;2023-09-19T11:07:27;1.38;;;0.90;;
21432;SDS011;18592;49.708;10.900;2023-09-19T11:09:46;1.08;;;0.98;;
21432;SDS011;18592;49.708;10.900;2023-09-19T11:11:52;2.35;;;0.90;;
21432;SDS011;18592;49.708;10.900;2023-09-19T11:16:25;2.67;;;1.20;;
21432;SDS011;18592;49.708;10.900;2023-09-19T11:20:44;1.88;;;1.13;;
21432;SDS011;18592;49.708;10.900;2023-09-19T11:23:17;2.05;;;1.08;;
21432;SDS011;18592;49.708;10.900;2023-09-19T11:30:27;3.22;;;1.20;;
21432;SDS011;18592;49.708;10.900;2023-09-19T11:35:08;3.88;;;2.00;;
21432;SDS011;18592;49.708;10.900;2023-09-19T11:39:24;3.00;;;1.60;;
21432;SDS011;18592;49.708;10.900;2023-09-19T11:41:36;1.58;;;1.27;;
21432;SDS011;18592;49.708;10.900;2023-09-19T11:43:39;2.95;;;1.10;;
21432;SDS011;18592;49.708;10.900;2023-09-19T11:47:52;3.08;;;0.88;;
21432;SDS011;18592;49.708;10.900;2023-09-19T11:50:05;2.45;;;1.15;;
21432;SDS011;18592;49.708;10.900;2023-09-19T11:52:16;3.55;;;1.05;;
21432;SDS011;18592;49.708;10.900;2023-09-19T11:54:24;1.58;;;0.98;;
21432;SDS011;18592;49.708;10.900;2023-09-19T11:56:31;1.65;;;0.77;;
21432;SDS011;18592;49.708;10.900;2023-09-19T11:58:41;2.08;;;1.00;;
21432;SDS011;18592;49.708;10.900;2023-09-19T12:00:53;1.52;;;0.82;;
21432;SDS011;18592;49.708;10.900;2023-09-19T12:03:01;1.00;;;0.80;;
21432;SDS011;18592;49.708;10.900;2023-09-19T12:05:08;1.83;;;0.90;;
21432;SDS011;18592;49.708;10.900;2023-09-19T12:07:11;1.75;;;0.80;;
21432;SDS011;18592;49.708;10.900;2023-09-19T12:09:15;1.73;;;1.00;;
21432;SDS011;18592;49.708;10.900;2023-09-19T12:11:22;2.20;;;0.90;;
21432;SDS011;18592;49.708;10.900;2023-09-19T12:13:24;1.90;;;1.08;;
21432;SDS011;18592;49.708;10.900;2023-09-19T12:15:27;1.98;;;1.00;;
21432;SDS011;18592;49.708;10.900;2023-09-19T12:19:40;1.75;;;1.10;;
21432;SDS011;18592;49.708;10.900;2023-09-19T12:21:58;2.28;;;1.15;;
21432;SDS011;18592;49.708;10.900;2023-09-19T12:24:06;1.42;;;1.00;;
21432;SDS011;18592;49.708;10.900;2023-09-19T12:26:15;3.03;;;1.30;;
21432;SDS011;18592;49.708;10.900;2023-09-19T12:28:16;1.27;;;1.00;;
21432;SDS011;18592;49.708;10.900;2023-09-19T12:30:18;1.85;;;1.00;;
21432;SDS011;18592;49.708;10.900;2023-09-19T12:32:35;2.00;;;1.08;;
21432;SDS011;18592;49.708;10.900;2023-09-19T12:34:36;2.03;;;1.00;;
21432;SDS011;18592;49.708;10.900;2023-09-19T12:36:43;2.08;;;1.00;;
21432;SDS011;18592;49.708;10.900;2023-09-19T12:38:47;2.58;;;0.80;;
21432;SDS011;18592;49.708;10.900;2023-09-19T12:41:01;1.13;;;0.93;;
21432;SDS011;18592;49.708;10.900;2023-09-19T12:43:01;1.40;;;1.00;;
21432;SDS011;18592;49.708;10.900;2023-09-19T12:45:11;1.90;;;1.10;;
21432;SDS011;18592;49.708;10.900;2023-09-19T12:47:17;0.82;;;0.80;;
21432;SDS011;18592;49.708;10.900;2023-09-19T12:49:25;1.45;;;0.80;;
21432;SDS011;18592;49.708;10.900;2023-09-19T12:51:39;2.58;;;1.00;;
21432;SDS011;18592;49.708;10.900;2023-09-19T12:53:44;1.33;;;1.08;;
21432;SDS011;18592;49.708;10.900;2023-09-19T12:55:57;1.40;;;0.95;;
21432;SDS011;18592;49.708;10.900;2023-09-19T12:58:02;3.20;;;0.95;;
21432;SDS011;18592;49.708;10.900;2023-09-19T13:00:05;1.50;;;1.05;;
21432;SDS011;18592;49.708;10.900;2023-09-19T13:02:08;1.90;;;1.00;;
21432;SDS011;18592;49.708;10.900;2023-09-19T13:04:20;1.58;;;1.08;;
21432;SDS011;18592;49.708;10.900;2023-09-19T13:06:35;1.52;;;0.90;;
21432;SDS011;18592;49.708;10.900;2023-09-19T13:09:07;1.60;;;1.00;;
21432;SDS011;18592;49.708;10.900;2023-09-19T13:11:13;1.40;;;1.00;;
21432;SDS011;18592;49.708;10.900;2023-09-19T13:13:24;3.55;;;1.27;;
21432;SDS011;18592;49.708;10.900;2023-09-19T13:15:29;2.03;;;1.17;;
21432;SDS011;18592;49.708;10.900;2023-09-19T13:17:54;3.45;;;1.40;;
21432;SDS011;18592;49.708;10.900;2023-09-19T13:19:56;2.53;;;1.50;;
21432;SDS011;18592;49.708;10.900;2023-09-19T13:22:02;1.15;;;0.88;;
21432;SDS011;18592;49.708;10.900;2023-09-19T13:24:17;1.33;;;1.08;;
21432;SDS011;18592;49.708;10.900;2023-09-19T13:26:35;1.10;;;1.00;;
21432;SDS011;18592;49.708;10.900;2023-09-19T13:28:38;1.60;;;1.10;;
21432;SDS011;18592;49.708;10.900;2023-09-19T13:30:43;3.00;;;1.20;;
21432;SDS011;18592;49.708;10.900;2023-09-19T13:32:46;1.80;;;1.20;;
21432;SDS011;18592;49.708;10.900;2023-09-19T13:34:49;1.30;;;1.00;;
21432;SDS011;18592;49.708;10.900;2023-09-19T13:36:53;2.92;;;1.38;;
21432;SDS011;18592;49.708;10.900;2023-09-19T13:38:55;2.65;;;1.15;;
21432;SDS011;18592;49.708;10.900;2023-09-19T13:40:56;1.80;;;1.00;;
21432;SDS011;18592;49.708;10.900;2023-09-19T13:43:01;1.30;;;1.10;;
21432;SDS011;18592;49.708;10.900;2023-09-19T13:45:13;1.52;;;1.10;;